sensor_id;sensor_type;location;lat;lon;timestamp;temperature;humidity
17956;DHT22;27666;51.498;11.966;2022-07-01T00:01:18;23.50;99.90
17956;DHT22;27666;51.498;11.966;2022-07-01T00:04:04;23.40;99.90
17956;DHT22;27666;51.498;11.966;2022-07-01T00:06:53;23.40;99.90
17956;DHT22;27666;51.498;11.966;2022-07-01T00:09:39;23.40;99.90
17956;DHT22;27666;51.498;11.966;2022-07-01T00:12:26;23.30;99.90
17956;DHT22;27666;51.498;11.966;2022-07-01T00:15:12;23.20;99.90
17956;DHT22;27666;51.498;11.966;2022-07-01T00:17:59;23.20;99.90
17956;DHT22;27666;51.498;11.966;2022-07-01T00:20:45;23.10;99.90
17956;DHT22;27666;51.498;11.966;2022-07-01T00:23:33;23.00;99.90
17956;DHT22;27666;51.498;11.966;2022-07-01T00:26:20;23.00;99.90
17956;DHT22;27666;51.498;11.966;2022-07-01T00:29:06;23.00;99.90
17956;DHT22;27666;51.498;11.966;2022-07-01T00:31:52;23.00;99.90
17956;DHT22;27666;51.498;11.966;2022-07-01T00:34:39;23.00;99.90
17956;DHT22;27666;51.498;11.966;2022-07-01T00:37:25;23.20;99.90
17956;DHT22;27666;51.498;11.966;2022-07-01T00:40:13;22.90;99.90
17956;DHT22;27666;51.498;11.966;2022-07-01T00:43:00;22.90;99.90
17956;DHT22;27666;51.498;11.966;2022-07-01T00:45:48;22.90;99.90
17956;DHT22;27666;51.498;11.966;2022-07-01T00:48:36;23.10;99.90
17956;DHT22;27666;51.498;11.966;2022-07-01T00:51:23;23.10;99.90
17956;DHT22;27666;51.498;11.966;2022-07-01T00:54:10;23.00;99.90
17956;DHT22;27666;51.498;11.966;2022-07-01T00:56:58;23.00;99.90
17956;DHT22;27666;51.498;11.966;2022-07-01T00:59:44;22.90;99.90
17956;DHT22;27666;51.498;11.966;2022-07-01T01:02:31;22.80;99.90
17956;DHT22;27666;51.498;11.966;2022-07-01T01:05:17;22.80;99.90
17956;DHT22;27666;51.498;11.966;2022-07-01T01:08:08;22.80;99.90
17956;DHT22;27666;51.498;11.966;2022-07-01T01:10:55;22.70;99.90
17956;DHT22;27666;51.498;11.966;2022-07-01T01:13:43;22.80;99.90
17956;DHT22;27666;51.498;11.966;2022-07-01T01:16:29;22.80;99.90
17956;DHT22;27666;51.498;11.966;2022-07-01T01:19:16;22.80;99.90
17956;DHT22;27666;51.498;11.966;2022-07-01T01:22:04;22.80;99.90
17956;DHT22;27666;51.498;11.966;2022-07-01T01:24:50;22.90;99.90
17956;DHT22;27666;51.498;11.966;2022-07-01T01:27:37;23.00;99.90
17956;DHT22;27666;51.498;11.966;2022-07-01T01:30:24;23.00;99.90
17956;DHT22;27666;51.498;11.966;2022-07-01T01:33:10;22.70;99.90
17956;DHT22;27666;51.498;11.966;2022-07-01T01:35:57;23.00;99.90
17956;DHT22;27666;51.498;11.966;2022-07-01T01:38:44;23.00;99.90
17956;DHT22;27666;51.498;11.966;2022-07-01T01:41:31;23.10;99.90
17956;DHT22;27666;51.498;11.966;2022-07-01T01:44:18;23.10;99.90
17956;DHT22;27666;51.498;11.966;2022-07-01T01:47:04;23.10;99.90
17956;DHT22;27666;51.498;11.966;2022-07-01T01:49:51;23.20;99.90
17956;DHT22;27666;51.498;11.966;2022-07-01T01:52:38;23.30;99.90
17956;DHT22;27666;51.498;11.966;2022-07-01T01:55:29;23.20;99.90
17956;DHT22;27666;51.498;11.966;2022-07-01T01:58:16;23.10;99.90
17956;DHT22;27666;51.498;11.966;2022-07-01T02:01:02;23.10;99.90
17956;DHT22;27666;51.498;11.966;2022-07-01T02:03:51;23.10;99.90
17956;DHT22;27666;51.498;11.966;2022-07-01T02:06:38;23.10;99.90
17956;DHT22;27666;51.498;11.966;2022-07-01T02:09:26;23.10;99.90
17956;DHT22;27666;51.498;11.966;2022-07-01T02:12:15;23.20;99.90
17956;DHT22;27666;51.498;11.966;2022-07-01T02:15:03;23.10;99.90
17956;DHT22;27666;51.498;11.966;2022-07-01T02:17:50;23.20;99.90
17956;DHT22;27666;51.498;11.966;2022-07-01T02:20:36;23.20;99.90
17956;DHT22;27666;51.498;11.966;2022-07-01T02:23:23;23.30;99.90
17956;DHT22;27666;51.498;11.966;2022-07-01T02:26:09;23.30;99.90
17956;DHT22;27666;51.498;11.966;2022-07-01T02:28:57;23.40;99.90
17956;DHT22;27666;51.498;11.966;2022-07-01T02:31:44;23.40;99.90
17956;DHT22;27666;51.498;11.966;2022-07-01T02:34:31;23.40;99.90
17956;DHT22;27666;51.498;11.966;2022-07-01T02:37:17;23.40;99.90
17956;DHT22;27666;51.498;11.966;2022-07-01T02:40:04;23.20;99.90
17956;DHT22;27666;51.498;11.966;2022-07-01T02:42:51;23.10;99.90
17956;DHT22;27666;51.498;11.966;2022-07-01T02:45:39;23.20;99.90
17956;DHT22;27666;51.498;11.966;2022-07-01T02:48:26;23.20;99.90
17956;DHT22;27666;51.498;11.966;2022-07-01T02:51:12;23.20;99.90
17956;DHT22;27666;51.498;11.966;2022-07-01T02:53:59;23.20;99.90
17956;DHT22;27666;51.498;11.966;2022-07-01T02:56:46;23.10;99.90
17956;DHT22;27666;51.498;11.966;2022-07-01T02:59:33;23.20;99.90
17956;DHT22;27666;51.498;11.966;2022-07-01T03:02:21;23.40;99.90
17956;DHT22;27666;51.498;11.966;2022-07-01T03:05:08;23.70;99.90
17956;DHT22;27666;51.498;11.966;2022-07-01T03:07:56;23.80;99.90
17956;DHT22;27666;51.498;11.966;2022-07-01T03:10:42;23.60;99.90
17956;DHT22;27666;51.498;11.966;2022-07-01T03:13:28;23.70;99.90
17956;DHT22;27666;51.498;11.966;2022-07-01T03:16:15;23.50;99.90
17956;DHT22;27666;51.498;11.966;2022-07-01T03:19:03;23.50;99.90
17956;DHT22;27666;51.498;11.966;2022-07-01T03:21:50;23.70;99.90
17956;DHT22;27666;51.498;11.966;2022-07-01T03:24:37;23.90;99.90
17956;DHT22;27666;51.498;11.966;2022-07-01T03:27:24;24.00;99.90
17956;DHT22;27666;51.498;11.966;2022-07-01T03:30:12;24.10;99.90
17956;DHT22;27666;51.498;11.966;2022-07-01T03:32:59;24.10;99.90
17956;DHT22;27666;51.498;11.966;2022-07-01T03:35:47;24.00;99.90
17956;DHT22;27666;51.498;11.966;2022-07-01T03:38:33;24.00;99.90
17956;DHT22;27666;51.498;11.966;2022-07-01T03:41:20;24.10;99.90
17956;DHT22;27666;51.498;11.966;2022-07-01T03:44:07;24.10;99.90
17956;DHT22;27666;51.498;11.966;2022-07-01T03:46:54;23.90;99.90
17956;DHT22;27666;51.498;11.966;2022-07-01T03:49:41;23.80;99.90
17956;DHT22;27666;51.498;11.966;2022-07-01T03:52:29;23.60;99.90
17956;DHT22;27666;51.498;11.966;2022-07-01T03:55:15;23.60;99.90
17956;DHT22;27666;51.498;11.966;2022-07-01T03:58:02;23.60;99.90
17956;DHT22;27666;51.498;11.966;2022-07-01T04:00:48;23.60;99.90
17956;DHT22;27666;51.498;11.966;2022-07-01T04:03:35;23.40;99.90
17956;DHT22;27666;51.498;11.966;2022-07-01T04:06:22;23.50;99.90
17956;DHT22;27666;51.498;11.966;2022-07-01T04:09:10;23.60;99.90
17956;DHT22;27666;51.498;11.966;2022-07-01T04:11:57;23.70;99.90
17956;DHT22;27666;51.498;11.966;2022-07-01T04:14:44;23.90;99.90
17956;DHT22;27666;51.498;11.966;2022-07-01T04:17:31;24.10;99.90
17956;DHT22;27666;51.498;11.966;2022-07-01T04:20:18;24.10;99.90
17956;DHT22;27666;51.498;11.966;2022-07-01T04:23:04;24.10;99.90
17956;DHT22;27666;51.498;11.966;2022-07-01T04:25:51;23.90;99.90
17956;DHT22;27666;51.498;11.966;2022-07-01T04:28:37;23.90;99.90
17956;DHT22;27666;51.498;11.966;2022-07-01T04:31:24;23.70;99.90
17956;DHT22;27666;51.498;11.966;2022-07-01T04:34:10;23.60;99.90
17956;DHT22;27666;51.498;11.966;2022-07-01T04:36:57;23.70;99.90
17956;DHT22;27666;51.498;11.966;2022-07-01T04:39:44;23.70;99.90
17956;DHT22;27666;51.498;11.966;2022-07-01T04:42:31;23.80;99.90
17956;DHT22;27666;51.498;11.966;2022-07-01T04:45:18;23.70;99.90
17956;DHT22;27666;51.498;11.966;2022-07-01T04:48:04;23.60;99.90
17956;DHT22;27666;51.498;11.966;2022-07-01T04:50:51;23.60;99.90
17956;DHT22;27666;51.498;11.966;2022-07-01T04:53:37;23.60;99.90
17956;DHT22;27666;51.498;11.966;2022-07-01T04:56:24;23.60;99.90
17956;DHT22;27666;51.498;11.966;2022-07-01T04:59:14;23.60;99.90
17956;DHT22;27666;51.498;11.966;2022-07-01T05:02:00;23.50;99.90
17956;DHT22;27666;51.498;11.966;2022-07-01T05:04:47;23.40;99.90
17956;DHT22;27666;51.498;11.966;2022-07-01T05:07:34;23.30;99.90
17956;DHT22;27666;51.498;11.966;2022-07-01T05:10:20;23.10;99.90
17956;DHT22;27666;51.498;11.966;2022-07-01T05:13:07;23.00;99.90
17956;DHT22;27666;51.498;11.966;2022-07-01T05:15:55;22.80;99.90
17956;DHT22;27666;51.498;11.966;2022-07-01T05:18:41;22.60;99.90
17956;DHT22;27666;51.498;11.966;2022-07-01T05:21:45;22.50;99.90
17956;DHT22;27666;51.498;11.966;2022-07-01T05:24:43;22.40;99.90
17956;DHT22;27666;51.498;11.966;2022-07-01T05:27:30;22.30;99.90
17956;DHT22;27666;51.498;11.966;2022-07-01T05:30:17;22.10;99.90
17956;DHT22;27666;51.498;11.966;2022-07-01T05:33:05;22.10;99.90
17956;DHT22;27666;51.498;11.966;2022-07-01T05:35:52;22.00;99.90
17956;DHT22;27666;51.498;11.966;2022-07-01T05:38:38;22.00;99.90
17956;DHT22;27666;51.498;11.966;2022-07-01T05:41:25;22.00;99.90
17956;DHT22;27666;51.498;11.966;2022-07-01T05:44:11;22.00;99.90
17956;DHT22;27666;51.498;11.966;2022-07-01T05:46:57;21.90;99.90
17956;DHT22;27666;51.498;11.966;2022-07-01T05:49:45;21.90;99.90
17956;DHT22;27666;51.498;11.966;2022-07-01T05:52:31;21.80;99.90
17956;DHT22;27666;51.498;11.966;2022-07-01T05:55:18;21.70;99.90
17956;DHT22;27666;51.498;11.966;2022-07-01T05:58:05;21.70;99.90
17956;DHT22;27666;51.498;11.966;2022-07-01T06:00:53;21.70;99.90
17956;DHT22;27666;51.498;11.966;2022-07-01T06:06:41;21.40;99.90
17956;DHT22;27666;51.498;11.966;2022-07-01T06:09:27;21.30;99.90
17956;DHT22;27666;51.498;11.966;2022-07-01T06:12:13;21.50;99.90
17956;DHT22;27666;51.498;11.966;2022-07-01T06:15:00;21.60;99.90
17956;DHT22;27666;51.498;11.966;2022-07-01T06:17:46;21.80;99.90
17956;DHT22;27666;51.498;11.966;2022-07-01T06:20:34;21.90;99.90
17956;DHT22;27666;51.498;11.966;2022-07-01T06:23:22;22.10;99.90
17956;DHT22;27666;51.498;11.966;2022-07-01T06:26:09;21.90;99.90
17956;DHT22;27666;51.498;11.966;2022-07-01T06:28:57;22.20;99.90
17956;DHT22;27666;51.498;11.966;2022-07-01T06:31:43;22.00;99.90
17956;DHT22;27666;51.498;11.966;2022-07-01T06:34:30;22.00;99.90
17956;DHT22;27666;51.498;11.966;2022-07-01T06:37:16;22.00;99.90
17956;DHT22;27666;51.498;11.966;2022-07-01T06:40:07;21.90;99.90
17956;DHT22;27666;51.498;11.966;2022-07-01T06:42:54;21.80;99.90
17956;DHT22;27666;51.498;11.966;2022-07-01T06:45:40;21.70;99.90
17956;DHT22;27666;51.498;11.966;2022-07-01T06:48:26;21.80;99.90
17956;DHT22;27666;51.498;11.966;2022-07-01T06:51:13;21.60;99.90
17956;DHT22;27666;51.498;11.966;2022-07-01T06:54:00;21.70;99.90
17956;DHT22;27666;51.498;11.966;2022-07-01T06:56:47;21.60;99.90
17956;DHT22;27666;51.498;11.966;2022-07-01T06:59:34;21.60;99.90
17956;DHT22;27666;51.498;11.966;2022-07-01T07:02:20;21.70;99.90
17956;DHT22;27666;51.498;11.966;2022-07-01T07:05:13;21.70;99.90
17956;DHT22;27666;51.498;11.966;2022-07-01T07:08:00;21.60;99.90
17956;DHT22;27666;51.498;11.966;2022-07-01T07:10:47;21.60;99.90
17956;DHT22;27666;51.498;11.966;2022-07-01T07:13:35;21.50;99.90
17956;DHT22;27666;51.498;11.966;2022-07-01T07:16:21;21.50;99.90
17956;DHT22;27666;51.498;11.966;2022-07-01T07:19:08;21.40;99.90
17956;DHT22;27666;51.498;11.966;2022-07-01T07:21:56;21.40;99.90
17956;DHT22;27666;51.498;11.966;2022-07-01T07:24:42;21.30;99.90
17956;DHT22;27666;51.498;11.966;2022-07-01T07:27:29;21.30;99.90
17956;DHT22;27666;51.498;11.966;2022-07-01T07:30:20;21.30;99.90
17956;DHT22;27666;51.498;11.966;2022-07-01T07:33:07;21.20;99.90
17956;DHT22;27666;51.498;11.966;2022-07-01T07:35:53;21.30;99.90
17956;DHT22;27666;51.498;11.966;2022-07-01T07:38:40;21.30;99.90
17956;DHT22;27666;51.498;11.966;2022-07-01T07:41:26;21.30;99.90
17956;DHT22;27666;51.498;11.966;2022-07-01T07:44:13;21.20;99.90
17956;DHT22;27666;51.498;11.966;2022-07-01T07:47:01;21.10;99.90
17956;DHT22;27666;51.498;11.966;2022-07-01T07:49:48;21.10;99.90
17956;DHT22;27666;51.498;11.966;2022-07-01T07:52:34;20.90;99.90
17956;DHT22;27666;51.498;11.966;2022-07-01T07:55:21;21.10;99.90
17956;DHT22;27666;51.498;11.966;2022-07-01T14:38:28;20.00;99.90
17956;DHT22;27666;51.498;11.966;2022-07-01T14:41:15;19.90;99.90
17956;DHT22;27666;51.498;11.966;2022-07-01T14:44:02;19.70;99.90
17956;DHT22;27666;51.498;11.966;2022-07-01T14:46:48;19.60;99.90
17956;DHT22;27666;51.498;11.966;2022-07-01T15:06:19;19.80;99.90
17956;DHT22;27666;51.498;11.966;2022-07-01T15:09:07;19.90;99.90
17956;DHT22;27666;51.498;11.966;2022-07-01T15:11:54;19.90;99.90
17956;DHT22;27666;51.498;11.966;2022-07-01T15:14:41;19.90;99.90
17956;DHT22;27666;51.498;11.966;2022-07-01T15:17:28;20.10;99.90
17956;DHT22;27666;51.498;11.966;2022-07-01T15:20:15;20.00;99.90
17956;DHT22;27666;51.498;11.966;2022-07-01T15:23:02;20.00;99.90
17956;DHT22;27666;51.498;11.966;2022-07-01T15:25:50;20.00;99.90
17956;DHT22;27666;51.498;11.966;2022-07-01T15:28:37;19.90;99.90
17956;DHT22;27666;51.498;11.966;2022-07-01T15:31:23;19.80;99.90
17956;DHT22;27666;51.498;11.966;2022-07-01T15:34:31;19.70;99.90
17956;DHT22;27666;51.498;11.966;2022-07-01T15:37:17;19.60;99.90
17956;DHT22;27666;51.498;11.966;2022-07-01T15:40:05;19.50;99.90
17956;DHT22;27666;51.498;11.966;2022-07-01T15:42:53;19.50;99.90
17956;DHT22;27666;51.498;11.966;2022-07-01T15:45:41;19.50;99.90
17956;DHT22;27666;51.498;11.966;2022-07-01T19:38:46;18.50;99.90
17956;DHT22;27666;51.498;11.966;2022-07-01T19:41:33;18.40;99.90
17956;DHT22;27666;51.498;11.966;2022-07-01T19:44:20;18.20;99.90
17956;DHT22;27666;51.498;11.966;2022-07-01T19:47:10;18.10;99.90
17956;DHT22;27666;51.498;11.966;2022-07-01T19:49:56;18.10;99.90
17956;DHT22;27666;51.498;11.966;2022-07-01T19:52:43;18.00;99.90
17956;DHT22;27666;51.498;11.966;2022-07-01T19:55:31;18.00;99.90
17956;DHT22;27666;51.498;11.966;2022-07-01T19:58:17;17.90;99.90
17956;DHT22;27666;51.498;11.966;2022-07-01T20:01:04;17.90;99.90
17956;DHT22;27666;51.498;11.966;2022-07-01T20:03:50;17.90;99.90
17956;DHT22;27666;51.498;11.966;2022-07-01T20:06:37;17.90;99.90
17956;DHT22;27666;51.498;11.966;2022-07-01T20:09:24;17.80;99.90
17956;DHT22;27666;51.498;11.966;2022-07-01T20:12:12;17.70;99.90
17956;DHT22;27666;51.498;11.966;2022-07-01T20:14:58;17.60;99.90
17956;DHT22;27666;51.498;11.966;2022-07-01T20:17:45;17.60;99.90
17956;DHT22;27666;51.498;11.966;2022-07-01T20:20:31;17.60;99.90
17956;DHT22;27666;51.498;11.966;2022-07-01T20:23:18;17.50;99.90
17956;DHT22;27666;51.498;11.966;2022-07-01T20:26:04;17.50;99.90
17956;DHT22;27666;51.498;11.966;2022-07-01T20:28:52;17.40;99.90
17956;DHT22;27666;51.498;11.966;2022-07-01T20:31:38;17.50;99.90
17956;DHT22;27666;51.498;11.966;2022-07-01T20:34:25;17.40;99.90
17956;DHT22;27666;51.498;11.966;2022-07-01T20:37:11;17.40;99.90
17956;DHT22;27666;51.498;11.966;2022-07-01T20:39:58;17.40;99.90
17956;DHT22;27666;51.498;11.966;2022-07-01T20:42:45;17.30;99.90
17956;DHT22;27666;51.498;11.966;2022-07-01T20:45:33;17.40;99.90
17956;DHT22;27666;51.498;11.966;2022-07-01T20:48:20;17.40;99.90
17956;DHT22;27666;51.498;11.966;2022-07-01T20:51:06;17.30;99.90
17956;DHT22;27666;51.498;11.966;2022-07-01T20:53:53;17.30;99.90
17956;DHT22;27666;51.498;11.966;2022-07-01T20:56:39;17.20;99.90
17956;DHT22;27666;51.498;11.966;2022-07-01T20:59:25;17.20;99.90
17956;DHT22;27666;51.498;11.966;2022-07-01T21:02:22;17.20;99.90
17956;DHT22;27666;51.498;11.966;2022-07-01T21:05:27;17.30;99.90
17956;DHT22;27666;51.498;11.966;2022-07-01T21:08:14;17.30;99.90
17956;DHT22;27666;51.498;11.966;2022-07-01T21:11:01;17.30;99.90
17956;DHT22;27666;51.498;11.966;2022-07-01T21:13:48;17.40;99.90
17956;DHT22;27666;51.498;11.966;2022-07-01T21:16:34;17.40;99.90
17956;DHT22;27666;51.498;11.966;2022-07-01T21:19:23;17.40;99.90
17956;DHT22;27666;51.498;11.966;2022-07-01T21:22:09;17.50;99.90
17956;DHT22;27666;51.498;11.966;2022-07-01T21:24:56;17.50;99.90
17956;DHT22;27666;51.498;11.966;2022-07-01T21:27:42;17.60;99.90
17956;DHT22;27666;51.498;11.966;2022-07-01T21:30:29;17.70;99.90
17956;DHT22;27666;51.498;11.966;2022-07-01T21:33:22;17.80;99.90
17956;DHT22;27666;51.498;11.966;2022-07-01T21:36:10;17.70;99.90
17956;DHT22;27666;51.498;11.966;2022-07-01T21:38:56;17.70;99.90
17956;DHT22;27666;51.498;11.966;2022-07-01T21:41:45;17.70;99.90
17956;DHT22;27666;51.498;11.966;2022-07-01T21:44:32;17.70;99.90
17956;DHT22;27666;51.498;11.966;2022-07-01T21:47:19;17.60;99.90
17956;DHT22;27666;51.498;11.966;2022-07-01T21:50:07;17.60;99.90
17956;DHT22;27666;51.498;11.966;2022-07-01T21:52:58;17.60;99.90
17956;DHT22;27666;51.498;11.966;2022-07-01T21:55:46;17.60;99.90
17956;DHT22;27666;51.498;11.966;2022-07-01T21:58:35;17.50;99.90
17956;DHT22;27666;51.498;11.966;2022-07-01T22:01:22;17.50;99.90
17956;DHT22;27666;51.498;11.966;2022-07-01T22:04:09;17.50;99.90
17956;DHT22;27666;51.498;11.966;2022-07-01T22:06:56;17.40;99.90
17956;DHT22;27666;51.498;11.966;2022-07-01T22:09:46;17.40;99.90
17956;DHT22;27666;51.498;11.966;2022-07-01T22:12:34;17.40;99.90
17956;DHT22;27666;51.498;11.966;2022-07-01T22:15:21;17.40;99.90
17956;DHT22;27666;51.498;11.966;2022-07-01T22:18:07;17.40;99.90
17956;DHT22;27666;51.498;11.966;2022-07-01T22:20:54;17.30;99.90
17956;DHT22;27666;51.498;11.966;2022-07-01T22:23:42;17.30;99.90
17956;DHT22;27666;51.498;11.966;2022-07-01T22:26:30;17.40;99.90
17956;DHT22;27666;51.498;11.966;2022-07-01T22:29:16;17.40;99.90
17956;DHT22;27666;51.498;11.966;2022-07-01T22:32:05;17.40;99.90
17956;DHT22;27666;51.498;11.966;2022-07-01T22:34:53;17.40;99.90
17956;DHT22;27666;51.498;11.966;2022-07-01T22:37:39;17.30;99.90
17956;DHT22;27666;51.498;11.966;2022-07-01T22:40:31;17.40;99.90
17956;DHT22;27666;51.498;11.966;2022-07-01T22:43:21;17.30;99.90
17956;DHT22;27666;51.498;11.966;2022-07-01T22:46:14;17.30;99.90
17956;DHT22;27666;51.498;11.966;2022-07-01T22:49:06;17.20;99.90
17956;DHT22;27666;51.498;11.966;2022-07-01T22:52:02;17.30;99.90
17956;DHT22;27666;51.498;11.966;2022-07-01T22:55:02;17.30;99.90
17956;DHT22;27666;51.498;11.966;2022-07-01T22:57:57;17.20;99.90
17956;DHT22;27666;51.498;11.966;2022-07-01T23:00:51;17.20;99.90
17956;DHT22;27666;51.498;11.966;2022-07-01T23:03:42;17.20;99.90
17956;DHT22;27666;51.498;11.966;2022-07-01T23:06:36;17.20;99.90
17956;DHT22;27666;51.498;11.966;2022-07-01T23:09:28;17.10;99.90
17956;DHT22;27666;51.498;11.966;2022-07-01T23:12:21;17.10;99.90
17956;DHT22;27666;51.498;11.966;2022-07-01T23:15:10;17.00;99.90
17956;DHT22;27666;51.498;11.966;2022-07-01T23:18:16;17.10;99.90
17956;DHT22;27666;51.498;11.966;2022-07-01T23:21:03;17.10;99.90
17956;DHT22;27666;51.498;11.966;2022-07-01T23:23:50;17.00;99.90
17956;DHT22;27666;51.498;11.966;2022-07-01T23:26:40;17.10;99.90
17956;DHT22;27666;51.498;11.966;2022-07-01T23:29:28;17.10;99.90
17956;DHT22;27666;51.498;11.966;2022-07-01T23:32:15;17.00;99.90
17956;DHT22;27666;51.498;11.966;2022-07-01T23:35:07;17.00;99.90
17956;DHT22;27666;51.498;11.966;2022-07-01T23:37:54;17.00;99.90
17956;DHT22;27666;51.498;11.966;2022-07-01T23:40:44;17.10;99.90
17956;DHT22;27666;51.498;11.966;2022-07-01T23:43:31;17.10;99.90
17956;DHT22;27666;51.498;11.966;2022-07-01T23:46:18;17.10;99.90
17956;DHT22;27666;51.498;11.966;2022-07-01T23:49:10;17.10;99.90
17956;DHT22;27666;51.498;11.966;2022-07-01T23:51:58;17.10;99.90
17956;DHT22;27666;51.498;11.966;2022-07-01T23:54:45;17.00;99.90
17956;DHT22;27666;51.498;11.966;2022-07-01T23:57:31;17.10;99.90
